Not for real navigation | The accuracy of this data is not assured | See disclaimer for more information
ICAO NAME COUNTRY WIND Kt GUST Kt VIS TEMP/DEW BARO
GOSM Matam Senegal 4 0 9999 45/9 29.77
GOSM 261500Z 04004KT CAVOK 45/09 Q1008
GAKD 8 0 8000 44/12 29.77
GAKD 261500Z 26008KT 8000 NSC 44/12 Q1008
GOSP Podor Senegal 2 0 9999 44/9 29.77
GOSP 261500Z 04002KT CAVOK 44/09 Q1008
GOOG Linguere Senegal 2 0 9999 43/19 29.92
GOOG 261500Z 36002KT CAVOK 43/19 Q////
DAUI In Salah North Algeria 0 0 1000 42/3 29.88
DAUI 261500Z 00000KT 1000 SA NSC 42/03 Q1012

Show more